UCT Elwood — V7HW9 — position and weather

sailwx.info

Track history (hours):
 
Tides and Currents Weather Stations Pressure Air Temp Water Temp Dewpoint Dewpoint Depression Visibility Wind Speed Wind Dir Waves Ship Positions

UCT Elwood

Last reported at 2015-Jul-24 15:33 UTC. Time now 2015-Aug-02 02:14 UTC.
Position S 33°33' E 027°36'.
Warning: this ship's position is 8 days out of date.

Type: Ship (hazmat cat B). MMSI: 538002324.

Date/timePositionNaut miles runAvg speedWind from/ knotsBaromVisibWave heightAir tempDewpointWater temp
2015-Jul-24 15:33S 33°33' E 027°36'1111.1
2015-Jul-24 14:31S 33°26' E 027°47'1311.3
2015-Jul-24 13:24S 33°18' E 027°60'21111.8
2015-Jul-23 19:27S 30°48' E 030°55'1112.0
2015-Jul-23 18:33S 30°40' E 031°02'1312.9
2015-Jul-23 17:31S 30°29' E 031°11'1213.0
2015-Jul-23 16:33S 30°19' E 031°20'1312.8
2015-Jul-23 15:33S 30°09' E 031°29'1312.6
2015-Jul-23 14:34S 29°58' E 031°37'1212.4
2015-Jul-23 13:34S 29°49' E 031°46'1212.4
2015-Jul-23 12:33S 29°39' E 031°54'1312.4
2015-Jul-23 11:32S 29°29' E 032°03'1312.9
2015-Jul-23 10:30S 29°18' E 032°12'1313.0
2015-Jul-23 09:31S 29°08' E 032°21'1212.6
2015-Jul-23 08:33S 28°58' E 032°29'  
Track history (hours):
 
Tides and Currents Weather Stations Pressure Air Temp Water Temp Dewpoint Dewpoint Depression Visibility Wind Speed Wind Dir Waves Ship Positions

UCT Elwood

Last reported at 2015-Jul-24 15:33 UTC. Time now 2015-Aug-02 02:14 UTC.
Position S 33°33' E 027°36'.
Warning: this ship's position is 8 days out of date.

Type: Ship (hazmat cat B). MMSI: 538002324.

Date/timePositionNaut miles runAvg speedWind from/ knotsBaromVisibWave heightAir tempDewpointWater temp
2015-Jul-24 15:33S 33°33' E 027°36'1111.1
2015-Jul-24 14:31S 33°26' E 027°47'1311.3
2015-Jul-24 13:24S 33°18' E 027°60'21111.8
2015-Jul-23 19:27S 30°48' E 030°55'1112.0
2015-Jul-23 18:33S 30°40' E 031°02'1312.9
2015-Jul-23 17:31S 30°29' E 031°11'1213.0
2015-Jul-23 16:33S 30°19' E 031°20'1312.8
2015-Jul-23 15:33S 30°09' E 031°29'1312.6
2015-Jul-23 14:34S 29°58' E 031°37'1212.4
2015-Jul-23 13:34S 29°49' E 031°46'1212.4
2015-Jul-23 12:33S 29°39' E 031°54'1312.4
2015-Jul-23 11:32S 29°29' E 032°03'1312.9
2015-Jul-23 10:30S 29°18' E 032°12'1313.0
2015-Jul-23 09:31S 29°08' E 032°21'1212.6
2015-Jul-23 08:33S 28°58' E 032°29'  

Dump ship's entire track history